createdAt,value
2022-07-31T00:02:30.390Z,4.97
2022-07-31T00:05:19.242Z,5.35
2022-07-31T00:08:07.801Z,5.47
2022-07-31T00:10:57.904Z,5.50
2022-07-31T00:13:56.397Z,5.45
2022-07-31T00:16:46.867Z,5.47
2022-07-31T00:19:35.508Z,5.80
2022-07-31T00:22:24.038Z,5.57
2022-07-31T00:25:14.060Z,5.85
2022-07-31T00:28:03.949Z,5.38
2022-07-31T00:30:52.504Z,4.82
2022-07-31T00:33:40.952Z,5.80
2022-07-31T00:36:30.138Z,5.70
2022-07-31T00:39:21.363Z,5.30
2022-07-31T00:42:18.491Z,5.65
2022-07-31T00:45:10.518Z,5.40
2022-07-31T00:48:03.952Z,5.53
2022-07-31T00:50:53.289Z,5.55
2022-07-31T00:53:41.837Z,5.65
2022-07-31T00:56:30.779Z,5.82
2022-07-31T00:59:24.305Z,5.43
2022-07-31T01:02:15.266Z,5.43
2022-07-31T01:05:04.794Z,5.68
2022-07-31T01:07:53.497Z,5.82
2022-07-31T01:10:55.699Z,5.25
2022-07-31T01:13:50.852Z,5.70
2022-07-31T01:16:44.162Z,4.60
2022-07-31T01:19:43.156Z,5.18
2022-07-31T01:22:54.049Z,4.80
2022-07-31T01:25:56.185Z,4.72
2022-07-31T01:29:04.299Z,4.68
2022-07-31T01:31:58.697Z,5.35
2022-07-31T01:34:51.746Z,5.20
2022-07-31T01:37:44.905Z,4.63
2022-07-31T01:40:37.261Z,4.85
2022-07-31T01:43:31.001Z,4.90
2022-07-31T01:46:22.801Z,5.10
2022-07-31T01:49:13.534Z,4.75
2022-07-31T01:52:06.373Z,4.78
2022-07-31T01:54:56.879Z,4.88
2022-07-31T01:57:48.769Z,5.00
2022-07-31T02:00:38.622Z,4.93
2022-07-31T02:03:43.765Z,6.07
2022-07-31T02:06:36.327Z,5.45
2022-07-31T02:09:26.121Z,5.75
2022-07-31T02:12:15.367Z,6.10
2022-07-31T02:15:07.450Z,5.85
2022-07-31T02:17:58.457Z,6.20
2022-07-31T02:21:09.356Z,6.80
2022-07-31T02:23:58.931Z,6.38
2022-07-31T02:26:49.246Z,6.57
2022-07-31T02:29:39.053Z,7.40
2022-07-31T02:32:28.183Z,6.97
2022-07-31T02:35:22.422Z,7.50
2022-07-31T02:38:22.208Z,6.55
2022-07-31T02:41:13.698Z,7.60
2022-07-31T02:44:02.682Z,7.05
2022-07-31T02:46:51.614Z,6.80
2022-07-31T02:49:40.639Z,7.57
2022-07-31T02:52:31.035Z,6.93
2022-07-31T02:55:20.972Z,6.57
2022-07-31T02:58:09.674Z,7.00
2022-07-31T03:01:02.742Z,7.80
2022-07-31T03:03:53.372Z,7.43
2022-07-31T03:06:42.110Z,7.90
2022-07-31T03:09:31.255Z,7.53
2022-07-31T03:12:41.748Z,6.35
2022-07-31T03:15:31.840Z,7.22
2022-07-31T03:18:21.865Z,6.95
2022-07-31T03:21:12.820Z,7.60
2022-07-31T03:24:03.241Z,6.88
2022-07-31T03:26:52.212Z,7.10
2022-07-31T03:29:43.868Z,7.10
2022-07-31T03:32:33.446Z,7.38
2022-07-31T03:35:22.105Z,7.55
2022-07-31T03:38:39.722Z,6.90
2022-07-31T03:41:22.294Z,7.10
2022-07-31T03:44:11.518Z,7.65
2022-07-31T03:47:02.157Z,7.28
2022-07-31T03:49:51.460Z,7.22
2022-07-31T03:52:40.209Z,7.75
2022-07-31T03:55:30.280Z,7.90
2022-07-31T03:58:21.164Z,16.02
2022-07-31T04:01:13.126Z,9.23
2022-07-31T04:04:03.016Z,8.95
2022-07-31T04:07:10.872Z,7.68
2022-07-31T04:09:59.661Z,7.50
2022-07-31T04:12:48.175Z,8.68
2022-07-31T04:15:39.225Z,8.40
2022-07-31T04:18:28.004Z,7.90
2022-07-31T04:21:17.990Z,8.68
2022-07-31T04:24:07.779Z,7.75
2022-07-31T04:27:22.547Z,7.53
2022-07-31T04:30:12.074Z,8.05
2022-07-31T04:33:01.299Z,7.57
2022-07-31T04:35:50.125Z,8.73
2022-07-31T04:38:40.022Z,8.77
2022-07-31T04:41:29.353Z,8.52
2022-07-31T04:44:18.283Z,7.40
2022-07-31T04:47:20.668Z,7.00
2022-07-31T04:50:11.682Z,7.13
2022-07-31T04:53:16.215Z,6.78
2022-07-31T04:56:24.283Z,7.10
2022-07-31T04:59:15.376Z,5.95
2022-07-31T05:02:07.320Z,6.70
2022-07-31T05:04:57.358Z,5.93
2022-07-31T05:07:51.802Z,5.32
2022-07-31T05:11:00.343Z,5.50
2022-07-31T05:13:51.826Z,5.20
2022-07-31T05:16:40.394Z,5.20
2022-07-31T05:19:30.121Z,4.65
2022-07-31T05:22:37.469Z,4.43
2022-07-31T05:25:44.787Z,4.55
2022-07-31T05:28:33.567Z,4.30
2022-07-31T05:31:23.836Z,3.60
2022-07-31T05:34:12.388Z,3.70
2022-07-31T05:37:02.212Z,4.05
2022-07-31T05:39:53.110Z,3.78
2022-07-31T05:42:59.962Z,3.50
2022-07-31T05:46:14.133Z,3.47
2022-07-31T05:49:04.581Z,3.80
2022-07-31T05:51:54.605Z,3.88
2022-07-31T05:54:45.747Z,3.45
2022-07-31T05:57:53.753Z,3.67
2022-07-31T06:00:43.126Z,3.75
2022-07-31T06:03:51.623Z,3.38
2022-07-31T06:07:01.582Z,3.45
2022-07-31T06:09:50.184Z,3.45
2022-07-31T06:12:39.027Z,3.30
2022-07-31T06:15:27.934Z,3.30
2022-07-31T06:18:16.548Z,4.00
2022-07-31T06:21:05.282Z,3.67
2022-07-31T06:23:55.617Z,3.35
2022-07-31T06:26:51.349Z,3.50
2022-07-31T06:29:41.915Z,3.75
2022-07-31T06:32:31.820Z,3.30
2022-07-31T06:35:20.332Z,3.80
2022-07-31T06:38:30.839Z,3.33
2022-07-31T06:41:48.455Z,3.30
2022-07-31T06:44:53.043Z,3.60
2022-07-31T06:48:14.487Z,3.55
2022-07-31T06:51:29.567Z,3.22
2022-07-31T06:54:17.020Z,3.00
2022-07-31T06:57:07.615Z,3.33
2022-07-31T06:59:56.437Z,3.20
2022-07-31T07:02:45.317Z,3.55
2022-07-31T07:05:34.053Z,3.45
2022-07-31T07:08:23.879Z,3.58
2022-07-31T07:11:12.675Z,3.70
2022-07-31T07:14:06.986Z,4.20
2022-07-31T07:16:55.582Z,3.95
2022-07-31T07:19:44.315Z,4.15
2022-07-31T07:22:38.412Z,4.38
2022-07-31T07:25:28.815Z,4.32
2022-07-31T07:28:30.978Z,4.47
2022-07-31T07:31:23.701Z,4.47
2022-07-31T07:34:12.559Z,4.82
2022-07-31T07:37:01.343Z,4.95
2022-07-31T07:39:52.840Z,5.50
2022-07-31T07:42:41.427Z,4.82
2022-07-31T07:45:30.036Z,5.22
2022-07-31T07:48:20.888Z,5.63
2022-07-31T07:51:32.407Z,5.75
2022-07-31T07:54:28.471Z,6.45
2022-07-31T07:57:49.327Z,6.63
2022-07-31T08:01:04.095Z,6.63
2022-07-31T08:03:54.107Z,6.88
2022-07-31T08:06:42.907Z,6.68
2022-07-31T08:09:31.838Z,7.50
2022-07-31T08:12:39.186Z,6.90
2022-07-31T08:15:47.596Z,6.97
2022-07-31T08:18:46.713Z,7.43
2022-07-31T08:21:37.519Z,7.20
2022-07-31T08:24:26.153Z,7.82
2022-07-31T08:27:28.506Z,9.20
2022-07-31T08:30:30.976Z,9.30
2022-07-31T08:33:20.206Z,10.15
2022-07-31T08:36:16.005Z,9.60
2022-07-31T08:39:06.462Z,10.20
2022-07-31T08:42:10.352Z,9.73
2022-07-31T08:44:58.963Z,8.27
2022-07-31T08:47:52.157Z,8.70
2022-07-31T08:50:52.064Z,8.60
2022-07-31T08:54:11.762Z,8.57
2022-07-31T08:57:00.745Z,7.72
2022-07-31T08:59:52.511Z,7.65
2022-07-31T09:02:41.648Z,8.27
2022-07-31T09:05:48.874Z,7.88
2022-07-31T09:08:38.830Z,7.63
2022-07-31T09:11:30.649Z,8.13
2022-07-31T09:14:49.970Z,7.65
2022-07-31T09:17:38.685Z,7.57
2022-07-31T09:20:29.656Z,7.72
2022-07-31T09:23:19.950Z,7.55
2022-07-31T09:26:09.873Z,7.50
2022-07-31T09:29:02.523Z,7.80
2022-07-31T09:31:51.607Z,7.68
2022-07-31T09:34:48.432Z,7.25
2022-07-31T09:37:40.368Z,7.55
2022-07-31T09:40:55.497Z,7.78
2022-07-31T09:43:55.820Z,7.15
2022-07-31T09:46:49.844Z,8.02
2022-07-31T09:49:39.343Z,8.00
2022-07-31T09:52:29.574Z,8.25
2022-07-31T09:55:18.161Z,8.48
2022-07-31T09:58:08.069Z,8.05
2022-07-31T10:01:02.874Z,8.60
2022-07-31T10:03:54.761Z,8.27
2022-07-31T10:06:44.878Z,8.20
2022-07-31T10:09:34.947Z,7.68
2022-07-31T10:12:35.055Z,7.50
2022-07-31T10:15:26.566Z,6.93
2022-07-31T10:18:51.702Z,7.30
2022-07-31T10:22:01.541Z,7.05
2022-07-31T10:24:54.412Z,7.28
2022-07-31T10:27:43.512Z,7.00
2022-07-31T10:30:38.967Z,6.35
2022-07-31T10:33:43.426Z,7.15
2022-07-31T10:36:55.777Z,6.00
2022-07-31T10:40:21.347Z,6.38
2022-07-31T10:43:20.985Z,5.20
2022-07-31T10:46:30.261Z,5.10
2022-07-31T10:49:42.091Z,4.25
2022-07-31T10:53:09.642Z,4.50
2022-07-31T10:56:19.632Z,4.10
2022-07-31T10:59:29.608Z,4.25
2022-07-31T11:02:33.900Z,4.55
2022-07-31T11:06:02.107Z,4.15
2022-07-31T11:09:05.173Z,4.60
2022-07-31T11:12:20.476Z,4.70
2022-07-31T11:15:30.707Z,4.47
2022-07-31T11:18:37.839Z,4.93
2022-07-31T11:21:39.301Z,4.70
2022-07-31T11:24:28.445Z,4.78
2022-07-31T11:27:17.079Z,4.60
2022-07-31T11:30:13.489Z,4.35
2022-07-31T11:33:02.761Z,4.90
2022-07-31T11:35:51.351Z,4.60
2022-07-31T11:38:42.439Z,4.85
2022-07-31T11:41:43.933Z,4.60
2022-07-31T11:44:33.374Z,4.50
2022-07-31T11:48:05.775Z,4.50
2022-07-31T11:50:40.901Z,3.90
2022-07-31T11:53:29.589Z,4.25
2022-07-31T11:56:19.747Z,4.93
2022-07-31T11:59:08.310Z,5.13
2022-07-31T12:02:19.401Z,4.93
2022-07-31T12:05:12.758Z,5.50
2022-07-31T12:08:01.648Z,5.47
2022-07-31T12:10:52.661Z,5.18
2022-07-31T12:13:41.349Z,5.65
2022-07-31T12:16:40.217Z,5.72
2022-07-31T12:19:30.408Z,5.90
2022-07-31T12:22:27.154Z,5.57
2022-07-31T12:25:15.783Z,6.30
2022-07-31T12:28:04.377Z,5.57
2022-07-31T12:31:00.814Z,6.15
2022-07-31T12:33:49.566Z,6.40
2022-07-31T12:36:38.255Z,5.95
2022-07-31T12:39:53.724Z,6.40
2022-07-31T12:42:41.768Z,6.15
2022-07-31T12:45:32.911Z,6.32
2022-07-31T12:48:21.519Z,6.63
2022-07-31T12:51:11.138Z,6.07
2022-07-31T12:53:59.726Z,5.78
2022-07-31T12:56:49.939Z,6.53
2022-07-31T12:59:39.006Z,6.95
2022-07-31T13:02:27.603Z,6.50
2022-07-31T13:05:16.127Z,6.38
2022-07-31T13:08:05.022Z,6.97
2022-07-31T13:10:53.824Z,6.65
2022-07-31T13:13:46.082Z,6.82
2022-07-31T13:16:34.906Z,7.70
2022-07-31T13:19:24.251Z,7.70
2022-07-31T13:22:12.798Z,7.70
2022-07-31T13:25:01.525Z,7.07
2022-07-31T13:27:50.068Z,7.38
2022-07-31T13:30:39.923Z,7.97
2022-07-31T13:33:28.557Z,7.47
2022-07-31T13:36:17.071Z,8.15
2022-07-31T13:39:05.625Z,7.38
2022-07-31T13:41:54.540Z,6.97
2022-07-31T13:44:43.259Z,7.40
2022-07-31T13:47:50.976Z,7.85
2022-07-31T13:50:41.517Z,7.78
2022-07-31T13:53:30.287Z,6.90
2022-07-31T13:56:39.253Z,6.28
2022-07-31T13:59:29.486Z,6.57
2022-07-31T14:02:18.515Z,6.90
2022-07-31T14:05:09.695Z,6.20
2022-07-31T14:08:00.350Z,6.30
2022-07-31T14:11:14.891Z,6.05
2022-07-31T14:14:03.754Z,6.20
2022-07-31T14:16:52.307Z,5.63
2022-07-31T14:19:44.336Z,5.28
2022-07-31T14:22:34.753Z,5.00
2022-07-31T14:25:23.384Z,4.25
2022-07-31T14:28:12.134Z,4.53
2022-07-31T14:31:00.904Z,4.60
2022-07-31T14:33:49.459Z,4.38
2022-07-31T14:36:38.433Z,4.25
2022-07-31T14:39:28.358Z,3.90
2022-07-31T14:42:22.041Z,4.47
2022-07-31T14:45:13.989Z,4.32
2022-07-31T14:48:02.569Z,3.90
2022-07-31T14:50:51.092Z,3.63
2022-07-31T14:53:39.682Z,3.75
2022-07-31T14:56:58.426Z,3.45
2022-07-31T14:59:38.442Z,3.70
2022-07-31T15:02:27.110Z,3.72
2022-07-31T15:06:51.097Z,3.55
2022-07-31T15:08:24.491Z,3.78
2022-07-31T15:11:13.068Z,3.15
2022-07-31T15:14:03.082Z,3.03
2022-07-31T15:16:51.717Z,2.88
2022-07-31T15:19:40.240Z,2.60
2022-07-31T15:22:29.197Z,2.13
2022-07-31T15:25:17.738Z,2.30
2022-07-31T15:28:06.245Z,2.35
2022-07-31T15:31:00.935Z,2.00
2022-07-31T15:33:49.794Z,2.13
2022-07-31T15:36:38.418Z,2.20
2022-07-31T15:39:27.162Z,2.38
2022-07-31T15:42:19.193Z,2.03
2022-07-31T15:45:11.817Z,2.45
2022-07-31T15:48:01.796Z,2.40
2022-07-31T15:50:50.263Z,2.60
2022-07-31T15:53:39.373Z,2.60
2022-07-31T15:56:28.127Z,3.20
2022-07-31T15:59:16.717Z,2.92
2022-07-31T16:02:05.280Z,3.30
2022-07-31T16:04:59.705Z,3.00
2022-07-31T16:08:31.905Z,4.40
2022-07-31T16:11:08.333Z,4.40
2022-07-31T16:13:56.952Z,2.70
2022-07-31T16:16:46.035Z,3.15
2022-07-31T16:19:35.292Z,3.13
2022-07-31T16:22:26.149Z,2.88
2022-07-31T16:25:14.936Z,3.15
2022-07-31T16:28:03.553Z,2.95
2022-07-31T16:30:52.507Z,3.20
2022-07-31T16:33:50.657Z,3.58
2022-07-31T16:36:39.549Z,4.43
2022-07-31T16:39:29.389Z,4.47
2022-07-31T16:42:17.989Z,5.35
2022-07-31T16:45:07.290Z,5.93
2022-07-31T16:47:55.779Z,6.47
2022-07-31T16:50:44.567Z,6.68
2022-07-31T16:54:13.909Z,6.40
2022-07-31T16:56:46.511Z,6.63
2022-07-31T16:59:56.805Z,7.20
2022-07-31T17:02:44.814Z,9.70
2022-07-31T17:05:33.783Z,9.50
2022-07-31T17:08:22.512Z,10.38
2022-07-31T17:11:11.316Z,10.43
2022-07-31T17:14:01.559Z,9.80
2022-07-31T17:16:51.260Z,11.00
2022-07-31T17:19:45.284Z,8.73
2022-07-31T17:22:38.118Z,8.77
2022-07-31T17:25:28.741Z,7.20
2022-07-31T17:28:17.302Z,8.25
2022-07-31T17:31:07.152Z,7.47
2022-07-31T17:34:00.741Z,7.50
2022-07-31T17:36:52.082Z,7.85
2022-07-31T17:39:40.791Z,7.60
2022-07-31T17:42:29.574Z,7.63
2022-07-31T17:45:19.583Z,7.80
2022-07-31T17:48:10.056Z,8.15
2022-07-31T17:50:59.049Z,8.60
2022-07-31T17:53:55.130Z,8.00
2022-07-31T17:56:47.928Z,7.38
2022-07-31T17:59:40.610Z,7.25
2022-07-31T18:02:29.387Z,8.00
2022-07-31T18:05:19.460Z,7.47
2022-07-31T18:08:08.146Z,6.47
2022-07-31T18:10:56.678Z,6.20
2022-07-31T18:13:48.358Z,6.50
2022-07-31T18:16:40.213Z,6.50
2022-07-31T18:19:29.157Z,7.35
2022-07-31T18:22:19.056Z,7.00
2022-07-31T18:25:09.676Z,7.47
2022-07-31T18:27:58.350Z,7.43
2022-07-31T18:30:46.986Z,7.13
2022-07-31T18:33:35.551Z,7.22
2022-07-31T18:36:24.792Z,7.80
2022-07-31T18:39:14.768Z,7.55
2022-07-31T18:42:03.458Z,6.68
2022-07-31T18:44:52.478Z,6.45
2022-07-31T18:47:41.115Z,6.03
2022-07-31T18:51:01.573Z,6.22
2022-07-31T18:53:39.497Z,6.05
2022-07-31T18:56:29.433Z,6.07
2022-07-31T18:59:17.907Z,6.72
2022-07-31T19:02:11.322Z,6.40
2022-07-31T19:05:00.893Z,5.45
2022-07-31T19:07:49.781Z,5.53
2022-07-31T19:10:38.305Z,5.93
2022-07-31T19:13:29.276Z,5.43
2022-07-31T19:16:18.107Z,5.60
2022-07-31T19:19:09.988Z,5.13
2022-07-31T19:21:59.289Z,4.78
2022-07-31T19:24:50.893Z,5.68
2022-07-31T19:27:48.061Z,5.03
2022-07-31T19:30:45.658Z,5.25
2022-07-31T19:33:34.642Z,5.00
2022-07-31T19:36:23.310Z,5.10
2022-07-31T19:39:11.878Z,5.38
2022-07-31T19:42:11.472Z,5.15
2022-07-31T19:45:00.942Z,5.10
2022-07-31T19:47:51.444Z,5.47
2022-07-31T19:50:40.015Z,5.35
2022-07-31T19:53:28.534Z,4.65
2022-07-31T19:56:20.767Z,4.75
2022-07-31T19:59:09.722Z,4.90
2022-07-31T20:01:59.923Z,4.50
2022-07-31T20:04:49.995Z,4.88
2022-07-31T20:07:39.313Z,4.50
2022-07-31T20:10:28.594Z,4.38
2022-07-31T20:13:17.157Z,4.10
2022-07-31T20:16:06.373Z,4.22
2022-07-31T20:18:54.865Z,4.35
2022-07-31T20:21:44.755Z,4.53
2022-07-31T20:24:33.454Z,5.50
2022-07-31T20:27:21.998Z,4.20
2022-07-31T20:30:12.037Z,4.78
2022-07-31T20:33:00.819Z,5.15
2022-07-31T20:35:50.326Z,5.30
2022-07-31T20:38:40.369Z,5.60
2022-07-31T20:41:29.419Z,4.88
2022-07-31T20:44:18.257Z,5.47
2022-07-31T20:47:07.011Z,4.07
2022-07-31T20:49:55.535Z,4.20
2022-07-31T20:52:48.491Z,4.07
2022-07-31T20:55:38.625Z,4.03
2022-07-31T20:58:28.369Z,4.35
2022-07-31T21:01:18.360Z,4.38
2022-07-31T21:04:07.778Z,4.88
2022-07-31T21:06:56.363Z,5.65
2022-07-31T21:09:45.033Z,4.72
2022-07-31T21:12:35.073Z,4.90
2022-07-31T21:15:42.367Z,4.80
2022-07-31T21:18:34.696Z,5.18
2022-07-31T21:21:24.416Z,4.88
2022-07-31T21:24:13.195Z,4.88
2022-07-31T21:27:02.252Z,4.20
2022-07-31T21:29:56.685Z,4.00
2022-07-31T21:32:45.930Z,3.92
2022-07-31T21:35:35.948Z,4.10
2022-07-31T21:38:26.461Z,4.53
2022-07-31T21:41:16.473Z,4.53
2022-07-31T21:44:05.461Z,4.38
2022-07-31T21:47:01.304Z,4.32
2022-07-31T21:49:58.167Z,6.03
2022-07-31T21:52:47.071Z,4.50
2022-07-31T21:55:35.665Z,4.35
2022-07-31T21:58:24.279Z,4.60
2022-07-31T22:01:13.797Z,5.10
2022-07-31T22:04:04.067Z,5.00
2022-07-31T22:07:10.250Z,4.50
2022-07-31T22:09:58.839Z,3.95
2022-07-31T22:12:47.766Z,4.20
2022-07-31T22:15:52.671Z,4.40
2022-07-31T22:18:45.343Z,4.45
2022-07-31T22:21:35.960Z,4.47
2022-07-31T22:24:24.743Z,5.65
2022-07-31T22:27:32.679Z,5.35
2022-07-31T22:30:22.726Z,4.63
2022-07-31T22:33:11.440Z,4.63
2022-07-31T22:36:03.427Z,4.63
2022-07-31T22:38:53.370Z,4.32
2022-07-31T22:41:41.996Z,4.53
2022-07-31T22:44:31.014Z,5.47
2022-07-31T22:47:19.590Z,5.35
2022-07-31T22:50:10.139Z,5.45
2022-07-31T22:53:02.395Z,4.65
2022-07-31T22:55:53.091Z,5.50
2022-07-31T22:58:41.819Z,5.57
2022-07-31T23:01:30.300Z,10.25
2022-07-31T23:04:18.783Z,6.05
2022-07-31T23:07:07.472Z,6.07
2022-07-31T23:09:55.991Z,5.75
2022-07-31T23:12:46.150Z,5.85
2022-07-31T23:15:34.804Z,5.68
2022-07-31T23:18:23.547Z,5.38
2022-07-31T23:21:12.072Z,4.43
2022-07-31T23:24:00.820Z,4.63
2022-07-31T23:26:49.372Z,4.47
2022-07-31T23:29:41.394Z,9.13
2022-07-31T23:32:30.428Z,4.57
2022-07-31T23:35:19.008Z,4.70
2022-07-31T23:38:07.510Z,4.10
2022-07-31T23:40:56.463Z,4.13
2022-07-31T23:43:55.191Z,4.30
2022-07-31T23:46:45.378Z,4.40
2022-07-31T23:49:38.097Z,4.13
2022-07-31T23:52:26.711Z,3.97
2022-07-31T23:55:15.702Z,4.07
2022-07-31T23:58:04.317Z,3.78
